Time;durP1;ratioP1;P1;durP2;ratioP2;P2;SDS_P1;SDS_P2;PMS_P1;PMS_P2;Temp;Humidity;BMP_temperature;BMP_pressure;BME280_temperature;BME280_humidity;BME280_pressure;Samples;Min_cycle;Max_cycle;Signal;HPM_P1;HPM_P2
2023/02/08 00:01:29;;;;;;;35.60;16.50;;;;;;;-2.95;100.00;103960.28;2615328;36;20042;-53
2023/02/08 00:03:57;;;;;;;30.92;15.65;;;;;;;-2.94;100.00;103962.06;2615212;36;20042;-54
2023/02/08 00:06:25;;;;;;;28.60;14.82;;;;;;;-2.97;100.00;103962.00;2614300;36;20038;-56
2023/02/08 00:08:54;;;;;;;32.05;16.25;;;;;;;-2.95;100.00;103960.28;2615512;36;20039;-55
2023/02/08 00:11:25;;;;;;;23.30;14.10;;;;;;;-3.01;100.00;103949.63;2615893;36;20030;-55
2023/02/08 00:13:53;;;;;;;31.05;15.07;;;;;;;-3.04;100.00;103965.41;2614785;36;20596;-56
2023/02/08 00:16:21;;;;;;;23.30;13.05;;;;;;;-3.10;100.00;103958.25;2615780;36;20038;-56
2023/02/08 00:18:50;;;;;;;25.08;13.63;;;;;;;-3.15;100.00;103959.03;2615776;36;20034;-55
2023/02/08 00:21:20;;;;;;;26.23;12.88;;;;;;;-3.10;100.00;103957.38;2615252;31;20050;-53
2023/02/08 00:23:48;;;;;;;21.00;12.13;;;;;;;-3.14;100.00;103948.50;2615390;36;20046;-52
2023/02/08 00:26:16;;;;;;;24.20;12.25;;;;;;;-3.19;100.00;103943.16;2614715;36;20034;-55
2023/02/08 00:28:47;;;;;;;23.40;12.05;;;;;;;-3.21;100.00;103942.25;2615536;36;20038;-55
2023/02/08 00:31:16;;;;;;;22.88;12.43;;;;;;;-3.12;100.00;103933.63;2613242;31;20038;-57
2023/02/08 00:33:44;;;;;;;22.15;10.93;;;;;;;-3.07;100.00;103931.09;2613563;36;20416;-52
2023/02/08 00:36:13;;;;;;;23.45;12.85;;;;;;;-3.15;100.00;103930.97;2613916;36;20042;-54
2023/02/08 00:38:41;;;;;;;22.25;12.30;;;;;;;-3.18;100.00;103926.50;2612901;36;20034;-54
2023/02/08 00:41:10;;;;;;;25.55;13.75;;;;;;;-3.21;100.00;103928.19;2614470;31;20623;-53
2023/02/08 00:43:39;;;;;;;23.52;13.00;;;;;;;-3.25;100.00;103927.25;2613037;36;20034;-57
2023/02/08 00:46:11;;;;;;;25.35;13.05;;;;;;;-3.29;100.00;103930.69;2614499;31;20034;-57
2023/02/08 00:48:39;;;;;;;24.98;12.88;;;;;;;-3.37;100.00;103927.03;2614413;36;20813;-57
2023/02/08 00:51:15;;;;;;;22.40;13.05;;;;;;;-3.37;100.00;103929.66;2613806;54;20042;-53
2023/02/08 00:53:46;;;;;;;25.35;12.65;;;;;;;-3.24;100.00;103923.78;2612269;36;20042;-55
2023/02/08 00:56:15;;;;;;;25.33;13.30;;;;;;;-3.34;100.00;103924.44;2615227;31;20022;-56
2023/02/08 00:58:45;;;;;;;22.52;12.07;;;;;;;-3.42;100.00;103923.41;2615183;36;20038;-55
2023/02/08 01:01:16;;;;;;;21.80;12.13;;;;;;;-3.49;100.00;103921.50;2616232;36;20026;-53
2023/02/08 01:03:46;;;;;;;23.67;13.15;;;;;;;-3.42;100.00;103920.78;2615228;36;20129;-50
2023/02/08 01:06:16;;;;;;;21.55;12.55;;;;;;;-3.41;100.00;103923.44;2615199;36;20027;-55
2023/02/08 01:08:45;;;;;;;20.23;11.95;;;;;;;-3.42;100.00;103923.41;2616016;36;20045;-55
2023/02/08 01:11:16;;;;;;;25.08;13.48;;;;;;;-3.46;100.00;103932.09;2614915;31;20405;-56
2023/02/08 01:13:44;;;;;;;21.65;12.23;;;;;;;-3.43;100.00;103930.44;2613797;36;20034;-54
2023/02/08 01:16:18;;;;;;;25.58;13.85;;;;;;;-3.49;100.00;103934.66;2613002;31;20034;-54
2023/02/08 01:18:49;;;;;;;23.98;12.02;;;;;;;-3.47;100.00;103930.34;2615220;36;20609;-54
2023/02/08 01:21:20;;;;;;;24.45;13.00;;;;;;;-3.53;100.00;103931.97;2614999;36;20038;-53
2023/02/08 01:23:49;;;;;;;20.42;12.38;;;;;;;-3.52;100.00;103927.59;2613666;36;20035;-54
2023/02/08 01:26:19;;;;;;;22.45;12.80;;;;;;;-3.48;100.00;103931.19;2614062;36;20042;-55
2023/02/08 01:28:48;;;;;;;22.73;12.23;;;;;;;-3.49;100.00;103926.78;2613320;36;20562;-53
2023/02/08 01:31:22;;;;;;;24.13;13.05;;;;;;;-3.52;100.00;103928.50;2614706;36;20597;-53
2023/02/08 01:33:50;;;;;;;23.70;12.18;;;;;;;-3.49;100.00;103927.66;2613202;36;20042;-56
2023/02/08 01:36:19;;;;;;;26.10;12.45;;;;;;;-3.48;100.00;103928.56;2614061;36;20447;-53
2023/02/08 01:38:48;;;;;;;23.75;12.20;;;;;;;-3.54;100.00;103927.56;2613814;36;20041;-55
2023/02/08 01:41:19;;;;;;;27.42;13.07;;;;;;;-3.50;100.00;103919.72;2613962;36;20034;-56
2023/02/08 01:44:08;;;;;;;92.70;24.60;;;;;;;-3.58;100.00;103917.84;2613493;31;20034;-55
2023/02/08 01:46:41;;;;;;;89.53;27.50;;;;;;;-3.49;100.00;103916.25;2613333;36;20104;-55
2023/02/08 01:49:14;;;;;;;121.32;34.15;;;;;;;-3.61;100.00;103915.13;2613854;36;20046;-53
2023/02/08 01:51:47;;;;;;;101.50;32.00;;;;;;;-3.69;100.00;103922.00;2613153;36;20045;-54
2023/02/08 01:54:18;;;;;;;68.13;26.48;;;;;;;-3.74;100.00;103915.75;2614141;36;20043;-55
2023/02/08 01:56:48;;;;;;;48.60;19.50;;;;;;;-3.71;100.00;103919.34;2614127;36;20130;-53
2023/02/08 01:59:23;;;;;;;41.90;17.90;;;;;;;-3.71;100.00;103916.72;2615548;36;20033;-55
2023/02/08 02:01:57;;;;;;;35.22;16.83;;;;;;;-3.79;100.00;103914.78;2616697;36;20427;-56
2023/02/08 02:04:27;;;;;;;30.95;14.55;;;;;;;-3.72;100.00;103908.78;2615297;31;20042;-55
2023/02/08 02:06:59;;;;;;;24.40;13.52;;;;;;;-3.68;100.00;103908.00;2616198;31;20575;-53
2023/02/08 02:09:32;;;;;;;24.00;11.93;;;;;;;-3.65;100.00;103910.69;2615426;36;20438;-56
2023/02/08 02:12:01;;;;;;;24.40;12.43;;;;;;;-3.50;100.00;103898.66;2615366;36;20064;-55
2023/02/08 02:14:32;;;;;;;24.85;14.57;;;;;;;-3.55;100.00;103899.47;2614769;36;20527;-57
2023/02/08 02:17:04;;;;;;;34.10;13.27;;;;;;;-3.61;100.00;103906.34;2613877;36;20066;-55
2023/02/08 02:19:47;;;;;;;22.90;12.63;;;;;;;-3.72;100.00;103908.78;2614714;36;20042;-56
2023/02/08 02:22:40;;;;;;;23.55;13.13;;;;;;;-3.78;100.00;103906.03;2614712;36;20027;-54
2023/02/08 02:25:42;;;;;;;25.90;14.10;;;;;;;-3.76;100.00;103907.81;2615280;31;20570;-54
2023/02/08 02:28:47;;;;;;;24.45;13.23;;;;;;;-3.72;100.00;103908.78;2614494;31;20033;-55
2023/02/08 02:31:57;;;;;;;26.25;14.65;;;;;;;-3.73;100.00;103907.00;2615344;36;20026;-54
2023/02/08 02:34:30;;;;;;;23.88;14.57;;;;;;;-3.62;100.00;103901.94;2615029;36;20078;-55
2023/02/08 02:37:09;;;;;;;23.73;14.23;;;;;;;-3.59;100.00;103894.09;2616227;36;20043;-56
2023/02/08 02:39:44;;;;;;;26.33;14.43;;;;;;;-3.52;100.00;103899.53;2615951;36;20034;-57
2023/02/08 02:45:22;;;;;;;25.52;14.27;;;;;;;-3.57;100.00;103887.13;2614835;36;20564;-54
2023/02/08 02:47:58;;;;;;;27.90;15.05;;;;;;;-3.56;100.00;103889.78;2615820;36;20548;-57
2023/02/08 02:50:34;;;;;;;27.23;15.77;;;;;;;-3.58;100.00;103896.78;2615432;31;20038;-56
2023/02/08 02:53:07;;;;;;;27.05;15.57;;;;;;;-3.68;100.00;103889.56;2616397;36;20027;-57
2023/02/08 02:55:42;;;;;;;27.00;15.32;;;;;;;-3.70;100.00;103888.63;2615406;36;20034;-54
2023/02/08 02:58:15;;;;;;;25.23;14.75;;;;;;;-3.73;100.00;103893.84;2615856;36;20034;-53
2023/02/08 03:00:44;;;;;;;27.50;16.05;;;;;;;-3.75;100.00;103888.53;2616249;31;20118;-57
2023/02/08 03:03:23;;;;;;;27.65;15.23;;;;;;;-3.82;100.00;103886.63;2615336;36;20041;-57
2023/02/08 03:05:54;;;;;;;23.88;14.43;;;;;;;-3.90;100.00;103894.38;2615210;36;20055;-54
2023/02/08 03:08:39;;;;;;;25.88;14.63;;;;;;;-3.95;100.00;103890.75;2616121;36;20041;-52
2023/02/08 03:11:21;;;;;;;29.27;14.80;;;;;;;-4.04;100.00;103901.09;2615924;36;20027;-54
2023/02/08 03:14:04;;;;;;;22.83;13.73;;;;;;;-4.05;100.00;103901.94;2616468;36;20030;-54
2023/02/08 03:16:42;;;;;;;24.75;13.18;;;;;;;-4.08;100.00;103897.53;2616661;36;20042;-53
2023/02/08 03:19:22;;;;;;;26.23;14.02;;;;;;;-4.08;100.00;103900.16;2616810;31;20547;-55
2023/02/08 03:21:56;;;;;;;22.98;12.75;;;;;;;-4.08;100.00;103900.16;2616849;36;20037;-53
2023/02/08 03:24:29;;;;;;;21.30;11.73;;;;;;;-4.08;100.00;103905.41;2616835;36;20555;-56
2023/02/08 03:27:06;;;;;;;22.17;12.23;;;;;;;-4.08;100.00;103900.16;2616842;36;20035;-56
2023/02/08 03:29:46;;;;;;;23.23;13.68;;;;;;;-4.05;100.00;103899.31;2616753;36;20027;-55
2023/02/08 03:32:21;;;;;;;28.88;13.75;;;;;;;-4.10;100.00;103901.84;2616377;36;20154;-53
2023/02/08 03:34:59;;;;;;;21.95;13.00;;;;;;;-4.02;100.00;103896.75;2616385;36;20061;-54
2023/02/08 03:37:32;;;;;;;25.25;13.98;;;;;;;-3.98;100.00;103901.22;2616835;36;20034;-55
2023/02/08 03:40:06;;;;;;;22.67;13.48;;;;;;;-4.00;100.00;103897.69;2616783;36;20558;-53
2023/02/08 03:42:37;;;;;;;21.33;12.82;;;;;;;-4.03;100.00;103900.25;2616272;36;20034;-55
2023/02/08 03:45:12;;;;;;;22.45;13.40;;;;;;;-4.07;100.00;103898.41;2616489;36;20034;-52
2023/02/08 03:47:44;;;;;;;24.55;12.75;;;;;;;-4.14;100.00;103900.00;2616254;36;20034;-55
2023/02/08 03:50:18;;;;;;;24.17;14.15;;;;;;;-4.12;100.00;103893.03;2616331;31;20498;-54
2023/02/08 03:52:49;;;;;;;22.17;12.45;;;;;;;-4.22;100.00;103889.31;2616895;36;20141;-54
2023/02/08 03:55:20;;;;;;;21.27;13.05;;;;;;;-4.29;100.00;103895.28;2616557;36;20038;-55
2023/02/08 03:57:54;;;;;;;24.25;13.05;;;;;;;-4.33;100.00;103887.28;2617325;36;20102;-57
2023/02/08 04:00:23;;;;;;;24.88;13.85;;;;;;;-4.27;100.00;103888.34;2616716;36;20031;-56
2023/02/08 04:02:56;;;;;;;;;;;;;;;-4.07;100.00;103890.50;2616378;36;20041;-53
2023/02/08 04:05:27;;;;;;;25.20;13.77;;;;;;;-4.03;100.00;103889.72;2616209;36;19950;-55
2023/02/08 04:07:56;;;;;;;25.30;14.02;;;;;;;-4.11;100.00;103896.53;2617061;36;20116;-55
2023/02/08 04:10:24;;;;;;;22.90;13.18;;;;;;;-4.20;100.00;103899.88;2616338;36;20551;-56
2023/02/08 04:12:53;;;;;;;24.70;14.53;;;;;;;-4.19;100.00;103890.25;2617038;36;20081;-54
2023/02/08 04:15:21;;;;;;;23.35;13.32;;;;;;;-4.13;100.00;103890.38;2616617;31;20287;-57
2023/02/08 04:17:49;;;;;;;27.02;13.55;;;;;;;-4.03;100.00;103892.34;2616540;36;20439;-56
2023/02/08 04:20:18;;;;;;;23.20;12.80;;;;;;;-3.99;100.00;103894.19;2615798;36;20027;-56
2023/02/08 04:22:49;;;;;;;26.88;14.20;;;;;;;-3.92;100.00;103896.06;2616799;36;20049;-53
2023/02/08 04:25:17;;;;;;;28.00;14.45;;;;;;;-3.90;100.00;103888.22;2616269;36;20039;-57
2023/02/08 04:27:46;;;;;;;25.30;14.03;;;;;;;-3.80;100.00;103889.31;2616021;36;20023;-54
2023/02/08 04:30:15;;;;;;;28.52;15.18;;;;;;;-3.82;100.00;103886.63;2616490;36;20022;-52
2023/02/08 04:32:43;;;;;;;26.50;15.02;;;;;;;-3.89;100.00;103890.00;2615551;36;20035;-54
2023/02/08 04:35:12;;;;;;;28.90;15.20;;;;;;;-3.81;100.00;103885.78;2616300;31;20026;-56
2023/02/08 04:37:40;;;;;;;28.80;15.80;;;;;;;-3.90;100.00;103873.34;2616468;36;20065;-53
2023/02/08 04:40:13;;;;;;;28.77;15.80;;;;;;;-3.95;100.00;103874.09;2616254;36;20034;-55
2023/02/08 04:42:41;;;;;;;25.13;14.45;;;;;;;-3.94;100.00;103882.00;2616364;36;20050;-55
2023/02/08 04:45:11;;;;;;;29.60;16.00;;;;;;;-3.87;100.00;103870.75;2615989;36;20603;-56
2023/02/08 04:47:39;;;;;;;30.35;15.45;;;;;;;-3.76;100.00;103870.09;2616283;36;20050;-53
2023/02/08 04:50:08;;;;;;;25.13;13.93;;;;;;;-3.65;100.00;103863.31;2615401;36;20045;-55
2023/02/08 04:52:36;;;;;;;25.17;13.85;;;;;;;-3.67;100.00;103859.72;2616740;36;20037;-57
2023/02/08 04:55:05;;;;;;;25.17;14.13;;;;;;;-3.65;100.00;103862.41;2616968;36;20408;-55
2023/02/08 04:57:36;;;;;;;27.90;15.15;;;;;;;-3.74;100.00;103865.72;2616233;31;20562;-57
2023/02/08 05:00:05;;;;;;;25.65;13.88;;;;;;;-3.73;100.00;103859.63;2616500;36;20073;-55
2023/02/08 05:02:34;;;;;;;28.13;14.07;;;;;;;-3.81;100.00;103866.47;2616418;36;20035;-55
2023/02/08 05:05:02;;;;;;;27.98;14.02;;;;;;;-3.87;100.00;103868.13;2616032;36;20034;-56
2023/02/08 05:07:31;;;;;;;26.58;13.38;;;;;;;-3.83;100.00;103860.28;2615599;36;20043;-57
2023/02/08 05:09:59;;;;;;;28.92;13.60;;;;;;;-3.90;100.00;103865.44;2616174;36;20041;-55
2023/02/08 05:12:28;;;;;;;26.65;12.98;;;;;;;-3.91;100.00;103861.03;2615672;36;20039;-56
2023/02/08 05:14:59;;;;;;;28.17;13.73;;;;;;;-3.93;100.00;103860.13;2616441;36;20042;-54
2023/02/08 05:17:27;;;;;;;25.00;12.63;;;;;;;-3.82;100.00;103851.56;2615758;36;20030;-53
2023/02/08 05:19:55;;;;;;;27.77;13.98;;;;;;;-3.79;100.00;103854.25;2616186;36;20045;-55
2023/02/08 05:22:24;;;;;;;27.83;13.55;;;;;;;-3.90;100.00;103852.28;2615771;36;20049;-56
2023/02/08 05:24:52;;;;;;;23.65;12.07;;;;;;;-3.91;100.00;103847.88;2615970;36;20034;-54
2023/02/08 05:27:21;;;;;;;25.80;13.50;;;;;;;-3.91;100.00;103852.25;2616186;36;20030;-53
2023/02/08 05:29:49;;;;;;;24.37;12.47;;;;;;;-3.95;100.00;103848.66;2616086;36;20571;-56
2023/02/08 05:32:20;;;;;;;23.98;12.48;;;;;;;-4.01;100.00;103847.66;2616137;36;20031;-53
2023/02/08 05:34:49;;;;;;;26.92;12.77;;;;;;;-4.30;100.00;103851.47;2616573;31;20124;-56
2023/02/08 05:37:17;;;;;;;23.88;12.30;;;;;;;-4.34;100.00;103849.59;2615653;36;20034;-55
2023/02/08 05:39:46;;;;;;;22.15;12.05;;;;;;;-4.32;100.00;103855.78;2616433;36;20033;-56
2023/02/08 05:42:14;;;;;;;22.75;12.80;;;;;;;-4.30;100.00;103853.19;2615226;31;20045;-54
2023/02/08 05:44:42;;;;;;;24.05;12.05;;;;;;;-4.34;100.00;103854.88;2616189;36;20038;-55
2023/02/08 05:47:11;;;;;;;22.77;11.93;;;;;;;-4.34;100.00;103846.06;2615067;36;20034;-57
2023/02/08 05:49:41;;;;;;;24.80;11.80;;;;;;;-4.36;100.00;103859.19;2615466;36;20038;-53
2023/02/08 05:52:10;;;;;;;23.58;11.73;;;;;;;-4.41;100.00;103852.94;2616077;36;20235;-56
2023/02/08 05:54:38;;;;;;;23.55;12.57;;;;;;;-4.42;100.00;103845.91;2616216;36;20509;-53
2023/02/08 05:57:07;;;;;;;29.00;13.80;;;;;;;-4.33;100.00;103850.47;2615800;36;20431;-56
2023/02/08 05:59:35;;;;;;;26.65;12.50;;;;;;;-4.41;100.00;103842.44;2613608;36;20038;-55
2023/02/08 06:02:04;;;;;;;23.25;11.95;;;;;;;-4.47;100.00;103843.19;2613373;36;20527;-55
2023/02/08 06:04:32;;;;;;;22.80;12.35;;;;;;;-4.36;100.00;103840.78;2613922;36;20042;-54
2023/02/08 06:07:03;;;;;;;24.65;13.65;;;;;;;-4.35;100.00;103844.31;2615245;36;20042;-55
2023/02/08 06:09:31;;;;;;;25.00;13.68;;;;;;;-4.16;100.00;103840.34;2615423;36;20463;-56
2023/02/08 06:11:59;;;;;;;21.08;12.18;;;;;;;-4.13;100.00;103848.28;2615744;36;20050;-55
2023/02/08 06:14:28;;;;;;;26.20;14.20;;;;;;;-4.14;100.00;103846.50;2615353;36;20035;-54
2023/02/08 06:16:56;;;;;;;29.75;15.45;;;;;;;-4.11;100.00;103843.94;2615571;36;20038;-54
2023/02/08 06:19:25;;;;;;;26.38;14.40;;;;;;;-3.95;100.00;103848.66;2615902;36;20042;-56
2023/02/08 06:21:53;;;;;;;30.50;14.38;;;;;;;-3.97;100.00;103849.50;2615542;36;20034;-56
2023/02/08 06:24:24;;;;;;;26.83;14.15;;;;;;;-4.07;100.00;103854.56;2615612;31;20065;-53
2023/02/08 06:26:52;;;;;;;29.30;14.70;;;;;;;-4.06;100.00;103861.59;2616056;36;20033;-56
2023/02/08 06:29:21;;;;;;;29.25;15.07;;;;;;;-3.95;100.00;103860.94;2616186;36;20477;-55
2023/02/08 06:31:49;;;;;;;26.95;13.55;;;;;;;-4.02;100.00;103865.16;2614945;36;20043;-54
2023/02/08 06:34:17;;;;;;;26.50;14.93;;;;;;;-4.01;100.00;103864.31;2615323;36;20026;-56
2023/02/08 06:36:51;;;;;;;28.30;14.80;;;;;;;-4.09;100.00;103863.28;2615839;54;20563;-56
2023/02/08 06:39:20;;;;;;;26.42;14.05;;;;;;;-4.08;100.00;103867.69;2615633;36;20034;-56
2023/02/08 06:41:51;;;;;;;28.02;13.80;;;;;;;-4.16;100.00;103864.88;2615994;36;20515;-56
2023/02/08 06:44:19;;;;;;;24.77;13.38;;;;;;;-4.21;100.00;103866.56;2615110;36;20049;-56
2023/02/08 06:46:47;;;;;;;25.93;14.20;;;;;;;-4.26;100.00;103870.81;2615714;36;20031;-54
2023/02/08 06:49:16;;;;;;;24.05;13.52;;;;;;;-4.28;100.00;103865.50;2616670;36;20027;-53
2023/02/08 06:51:44;;;;;;;26.27;13.60;;;;;;;-4.28;100.00;103860.25;2616155;36;20030;-56
2023/02/08 06:54:14;;;;;;;26.48;14.75;;;;;;;-4.28;100.00;103860.25;2617159;31;20291;-55
2023/02/08 06:56:42;;;;;;;25.55;14.35;;;;;;;-4.33;100.00;103851.34;2617077;36;20034;-56
2023/02/08 06:59:13;;;;;;;28.27;14.90;;;;;;;-4.33;100.00;103840.84;2616885;36;20027;-56
2023/02/08 07:01:41;;;;;;;25.70;13.40;;;;;;;-4.27;100.00;103848.88;2616597;36;20037;-53
2023/02/08 07:04:10;;;;;;;31.13;15.25;;;;;;;-4.27;100.00;103842.72;2616793;31;20574;-57
2023/02/08 07:06:38;;;;;;;26.02;15.20;;;;;;;-4.17;100.00;103846.44;2616852;36;20042;-55
2023/02/08 07:09:06;;;;;;;27.05;14.68;;;;;;;-4.17;100.00;103846.44;2615831;36;20037;-53
2023/02/08 07:11:35;;;;;;;28.75;15.90;;;;;;;-4.17;100.00;103854.34;2616930;36;20027;-57
2023/02/08 07:14:03;;;;;;;30.95;15.00;;;;;;;-4.10;100.00;103848.34;2615954;36;20070;-55
2023/02/08 07:16:34;;;;;;;34.50;16.98;;;;;;;-4.05;100.00;103849.31;2616488;36;20030;-53
2023/02/08 07:19:03;;;;;;;33.28;17.00;;;;;;;-3.92;100.00;103843.44;2616469;36;20547;-56
2023/02/08 07:21:31;;;;;;;30.67;16.15;;;;;;;-3.85;100.00;103836.59;2616208;36;20023;-57
2023/02/08 07:23:59;;;;;;;30.75;17.40;;;;;;;-3.84;100.00;103842.72;2616998;36;20436;-54
2023/02/08 07:26:27;;;;;;;32.78;18.40;;;;;;;-3.76;100.00;103842.00;2616562;36;20031;-54
2023/02/08 07:28:56;;;;;;;30.75;16.17;;;;;;;-3.73;100.00;103833.31;2616393;31;20034;-56
2023/02/08 07:31:24;;;;;;;34.95;18.08;;;;;;;-3.63;100.00;103829.97;2616085;36;20042;-55
2023/02/08 07:33:55;;;;;;;31.95;17.52;;;;;;;-3.48;100.00;103828.50;2616570;36;20045;-55
2023/02/08 07:36:23;;;;;;;31.98;16.60;;;;;;;-3.36;100.00;103829.59;2616018;36;20038;-55
2023/02/08 07:38:52;;;;;;;32.60;17.65;;;;;;;-3.33;100.00;103820.84;2617347;36;20447;-56
2023/02/08 07:41:20;;;;;;;32.38;17.15;;;;;;;-3.25;100.00;103821.88;2617390;31;20455;-56
2023/02/08 07:43:48;;;;;;;31.77;15.77;;;;;;;-3.21;100.00;103818.44;2616598;31;20045;-56
2023/02/08 07:46:19;;;;;;;31.05;16.77;;;;;;;-3.18;100.00;103813.22;2616991;31;20034;-55
2023/02/08 07:48:48;;;;;;;30.40;15.10;;;;;;;-3.16;100.00;103821.16;2615868;36;20046;-54
2023/02/08 07:51:20;;;;;;;32.60;15.10;;;;;;;-3.11;100.00;103813.31;2616619;36;20166;-57
2023/02/08 07:53:48;;;;;;;31.92;15.25;;;;;;;-3.13;100.00;103815.06;2617201;31;20469;-55
2023/02/08 07:56:17;;;;;;;26.48;14.45;;;;;;;-3.09;100.00;103806.31;2615928;36;20049;-56
2023/02/08 07:58:45;;;;;;;29.10;15.97;;;;;;;-3.03;100.00;103801.16;2616462;36;20034;-56
2023/02/08 08:01:13;;;;;;;33.03;16.48;;;;;;;-2.89;100.00;103801.38;2616853;36;20405;-56
2023/02/08 08:03:42;;;;;;;28.40;15.77;;;;;;;-2.92;100.00;103798.69;2616222;36;20038;-54
2023/02/08 08:06:10;;;;;;;29.77;15.38;;;;;;;-2.83;100.00;103798.81;2616174;36;20030;-57
2023/02/08 08:08:46;;;;;;;27.75;14.20;;;;;;;-2.82;100.00;103797.97;2615135;36;20035;-56
2023/02/08 08:11:16;;;;;;;28.83;15.68;;;;;;;-2.69;100.00;103806.94;2617056;36;20463;-56
2023/02/08 08:13:44;;;;;;;28.25;14.35;;;;;;;-2.72;100.00;103813.06;2616597;36;20038;-54
2023/02/08 08:16:12;;;;;;;27.27;15.20;;;;;;;-2.57;100.00;103817.66;2616287;36;20415;-55
2023/02/08 08:18:41;;;;;;;26.45;14.15;;;;;;;-2.35;100.00;103810.91;2615833;36;20027;-56
2023/02/08 08:21:09;;;;;;;23.98;12.93;;;;;;;-2.41;100.00;103812.59;2616758;36;20035;-56
2023/02/08 08:23:40;;;;;;;23.42;13.00;;;;;;;-2.43;100.00;103809.91;2616331;36;20026;-55
2023/02/08 08:26:10;;;;;;;25.67;12.52;;;;;;;-2.50;100.00;103814.25;2616236;36;20042;-55
2023/02/08 08:28:39;;;;;;;23.08;12.32;;;;;;;-2.57;100.00;103819.41;2616280;36;20447;-55
2023/02/08 08:31:12;;;;;;;23.67;13.30;;;;;;;-2.57;100.00;103812.38;2616207;36;20030;-57
2023/02/08 08:33:40;;;;;;;23.75;12.68;;;;;;;-2.56;100.00;103807.97;2616399;36;20031;-57
2023/02/08 08:36:09;;;;;;;24.42;12.95;;;;;;;-2.42;100.00;103805.56;2616859;36;20589;-57
2023/02/08 08:38:40;;;;;;;21.98;12.27;;;;;;;-2.43;100.00;103799.38;2616041;36;20031;-53
2023/02/08 08:41:10;;;;;;;22.55;11.80;;;;;;;-2.40;100.00;103811.72;2616142;36;20038;-56
2023/02/08 08:43:39;;;;;;;23.90;13.25;;;;;;;-2.35;100.00;103802.13;2615501;36;20041;-55
2023/02/08 08:46:08;;;;;;;24.05;12.38;;;;;;;-2.27;100.00;103800.47;2615523;36;20026;-55
2023/02/08 08:48:37;;;;;;;22.48;12.45;;;;;;;-2.04;100.00;103802.50;2616077;36;20034;-55
2023/02/08 08:51:06;;;;;;;25.35;13.85;;;;;;;-1.96;100.00;103806.09;2616394;36;20023;-55
2023/02/08 08:53:35;;;;;;;20.90;12.13;;;;;;;-1.85;100.00;103799.22;2616122;36;20027;-53
2023/02/08 08:56:07;;;;;;;22.52;12.13;;;;;;;-1.68;100.00;103799.41;2616277;31;20046;-57
2023/02/08 08:58:35;;;;;;;20.77;10.90;;;;;;;-1.62;100.00;103796.81;2616757;31;20042;-57
2023/02/08 09:01:04;;;;;;;20.88;11.40;;;;;;;-1.34;100.00;103785.59;2615756;36;20046;-56
2023/02/08 09:03:33;;;;;;;21.83;11.65;;;;;;;-1.23;100.00;103787.44;2615983;36;20042;-55
2023/02/08 09:06:01;;;;;;;19.98;11.25;;;;;;;-0.88;100.00;103796.53;2616249;36;20038;-53
2023/02/08 09:08:29;;;;;;;20.58;10.52;;;;;;;-0.80;100.00;103788.66;2616208;36;20061;-55
2023/02/08 09:10:57;;;;;;;19.73;10.65;;;;;;;-0.71;100.00;103788.69;2616091;36;20053;-56
2023/02/08 09:13:29;;;;;;;19.25;10.63;;;;;;;-0.54;100.00;103791.44;2616212;36;20046;-54
2023/02/08 09:15:57;;;;;;;19.42;8.80;;;;;;;-0.31;100.00;103799.50;2615360;36;20038;-51
2023/02/08 09:18:25;;;;;;;19.45;9.63;;;;;;;0.11;100.00;103792.56;2615355;31;20038;-52
2023/02/08 09:20:53;;;;;;;18.05;8.75;;;;;;;0.21;100.00;103789.94;2615744;31;20033;-56
2023/02/08 09:23:22;;;;;;;17.95;9.93;;;;;;;0.12;100.00;103789.06;2614935;36;20038;-56
2023/02/08 09:25:50;;;;;;;18.85;9.77;;;;;;;0.30;100.00;103793.50;2615692;36;20026;-53
2023/02/08 09:28:18;;;;;;;22.02;10.05;;;;;;;0.33;100.00;103790.84;2615219;36;20030;-53
2023/02/08 09:30:49;;;;;;;31.52;11.15;;;;;;;0.60;100.00;103794.41;2616317;36;20046;-55
2023/02/08 09:33:17;;;;;;;24.65;11.35;;;;;;;0.57;100.00;103802.38;2616248;36;20045;-54
2023/02/08 09:35:46;;;;;;;25.65;10.52;;;;;;;0.49;100.00;103783.81;2616247;31;20033;-56
2023/02/08 09:38:14;;;;;;;29.20;12.73;;;;;;;0.58;100.00;103801.50;2615447;31;20042;-55
2023/02/08 09:40:51;;;;;;;16.63;8.55;;;;;;;0.63;100.00;103801.50;2615949;36;20026;-52
2023/02/08 09:43:31;;;;;;;24.60;9.60;;;;;;;0.82;100.00;103799.72;2614834;36;20030;-54
2023/02/08 09:46:06;;;;;;;19.00;8.98;;;;;;;0.66;100.00;103793.53;2616272;36;20046;-54
2023/02/08 09:48:37;;;;;;;21.13;8.98;;;;;;;1.03;100.00;103783.81;2614514;31;20490;-56
2023/02/08 09:51:14;;;;;;;24.65;11.38;;;;;;;1.26;100.00;103788.19;2615840;36;20559;-52
2023/02/08 09:53:46;;;;;;;22.25;10.82;;;;;;;1.33;100.00;103800.53;2615366;36;20049;-56
2023/02/08 09:56:17;;;;;;;16.60;9.30;;;;;;;1.44;100.00;103797.84;2615695;31;20545;-53
2023/02/08 09:58:48;;;;;;;17.10;9.23;;;;;;;1.38;100.00;103793.47;2616043;36;20042;-54
2023/02/08 10:01:22;;;;;;;13.65;7.07;;;;;;;1.54;100.00;103796.06;2616929;31;20060;-53
2023/02/08 10:03:53;;;;;;;16.02;7.60;;;;;;;1.45;100.00;103799.63;2615515;36;20039;-55
2023/02/08 10:06:23;;;;;;;17.40;7.22;;;;;;;1.75;100.00;103796.00;2616347;36;20034;-54
2023/02/08 10:08:54;;;;;;;18.42;7.90;;;;;;;1.86;100.00;103800.38;2616393;36;20045;-57
2023/02/08 10:11:42;;;;;;;13.50;6.93;;;;;;;1.70;100.00;103805.75;2615916;36;20034;-56
2023/02/08 10:14:26;;;;;;;13.50;6.95;;;;;;;1.83;100.00;103803.06;2616031;36;20038;-56
2023/02/08 10:17:10;;;;;;;11.70;6.90;;;;;;;1.99;100.00;103807.41;2615740;36;20061;-57
2023/02/08 10:19:49;;;;;;;9.85;6.32;;;;;;;2.15;100.00;103807.31;2615652;36;20058;-57
2023/02/08 10:22:29;;;;;;;15.07;6.95;;;;;;;2.35;100.00;103810.72;2617214;36;20492;-56
2023/02/08 10:25:11;;;;;;;17.75;7.65;;;;;;;2.38;100.00;103805.38;2616862;36;20026;-61
2023/02/08 10:27:50;;;;;;;12.13;6.75;;;;;;;2.49;100.00;103807.09;2617193;36;20435;-57
2023/02/08 10:30:30;;;;;;;11.20;6.73;;;;;;;2.33;100.00;103807.19;2617372;31;20586;-57
2023/02/08 10:33:12;;;;;;;11.70;6.68;;;;;;;2.40;100.00;103808.94;2616994;31;20042;-57
2023/02/08 10:35:46;;;;;;;11.07;6.57;;;;;;;2.55;100.00;103815.03;2616508;36;20041;-58
2023/02/08 10:38:35;;;;;;;9.98;6.20;;;;;;;2.66;100.00;103821.13;2616794;36;20042;-58
2023/02/08 10:41:07;;;;;;;14.68;7.18;;;;;;;2.69;100.00;103815.78;2617044;36;20041;-57
2023/02/08 10:43:41;;;;;;;12.93;6.88;;;;;;;2.81;100.00;103814.81;2616588;36;20045;-58
2023/02/08 10:46:17;;;;;;;13.95;7.40;;;;;;;2.86;100.00;103810.34;2617137;36;20030;-57
2023/02/08 10:49:00;;;;;;;12.40;6.50;;;;;;;2.79;100.00;103808.63;2616680;36;20033;-57
2023/02/08 10:51:29;;;;;;;12.15;6.90;;;;;;;2.66;100.00;103813.16;2616383;36;20038;-57
2023/02/08 10:53:58;;;;;;;11.15;6.80;;;;;;;2.77;100.00;103800.66;2617670;36;20590;-57
2023/02/08 10:56:47;;;;;;;12.02;6.88;;;;;;;2.92;100.00;103802.31;2618444;36;20042;-57
2023/02/08 10:59:20;;;;;;;10.98;6.95;;;;;;;2.82;100.00;103799.75;2617278;31;20034;-55
2023/02/08 11:01:51;;;;;;;12.75;7.75;;;;;;;2.99;100.00;103797.84;2616715;31;20186;-57
2023/02/08 11:04:22;;;;;;;13.23;7.28;;;;;;;3.22;100.00;103794.03;2616503;36;20415;-57
2023/02/08 11:06:53;;;;;;;11.98;6.95;;;;;;;3.49;100.00;103798.22;2616270;36;20026;-56
2023/02/08 11:09:24;;;;;;;14.38;7.70;;;;;;;3.37;100.00;103793.88;2616489;36;20038;-56
2023/02/08 11:11:54;;;;;;;13.00;6.85;;;;;;;3.45;100.00;103785.81;2616429;36;20030;-54
2023/02/08 11:14:30;;;;;;;11.40;6.60;;;;;;;3.56;100.00;103783.88;2616261;36;20042;-55
2023/02/08 11:16:59;;;;;;;11.13;6.35;;;;;;;3.69;100.00;103779.31;2616910;36;20043;-56
2023/02/08 11:19:41;;;;;;;15.82;7.45;;;;;;;3.55;96.49;103789.22;2615978;36;20062;-53
2023/02/08 11:22:16;;;;;;;12.15;6.43;;;;;;;3.81;100.00;103775.59;2616172;36;20034;-57
2023/02/08 11:24:49;;;;;;;12.82;6.82;;;;;;;3.72;98.79;103768.59;2616876;31;20026;-57
2023/02/08 11:27:20;;;;;;;14.85;6.65;;;;;;;3.90;88.97;103774.59;2616581;36;20034;-57